sensor_id;sensor_type;location;lat;lon;timestamp;P1;durP1;ratioP1;P2;durP2;ratioP2
6513;SDS011;3290;47.716;9.070;2022-10-16T00:01:30;3.10;;;2.33;;
6513;SDS011;3290;47.716;9.070;2022-10-16T00:03:57;9.53;;;2.90;;
6513;SDS011;3290;47.716;9.070;2022-10-16T00:06:25;5.37;;;2.67;;
6513;SDS011;3290;47.716;9.070;2022-10-16T00:08:51;12.33;;;3.70;;
6513;SDS011;3290;47.716;9.070;2022-10-16T00:11:18;12.10;;;2.80;;
6513;SDS011;3290;47.716;9.070;2022-10-16T00:13:46;18.70;;;3.00;;
6513;SDS011;3290;47.716;9.070;2022-10-16T00:16:14;7.90;;;2.73;;
6513;SDS011;3290;47.716;9.070;2022-10-16T00:18:40;10.50;;;3.17;;
6513;SDS011;3290;47.716;9.070;2022-10-16T00:21:08;8.30;;;2.83;;
6513;SDS011;3290;47.716;9.070;2022-10-16T00:23:35;5.47;;;2.50;;
6513;SDS011;3290;47.716;9.070;2022-10-16T00:26:03;9.10;;;2.97;;
6513;SDS011;3290;47.716;9.070;2022-10-16T00:28:30;7.10;;;2.63;;
6513;SDS011;3290;47.716;9.070;2022-10-16T00:30:56;4.33;;;2.37;;
6513;SDS011;3290;47.716;9.070;2022-10-16T00:33:21;4.83;;;2.83;;
6513;SDS011;3290;47.716;9.070;2022-10-16T00:35:47;18.83;;;3.03;;
6513;SDS011;3290;47.716;9.070;2022-10-16T00:38:13;7.10;;;2.93;;
6513;SDS011;3290;47.716;9.070;2022-10-16T00:40:39;11.27;;;2.57;;
6513;SDS011;3290;47.716;9.070;2022-10-16T00:43:09;3.60;;;2.50;;
6513;SDS011;3290;47.716;9.070;2022-10-16T00:45:39;4.80;;;2.90;;
6513;SDS011;3290;47.716;9.070;2022-10-16T00:48:06;4.50;;;2.87;;
6513;SDS011;3290;47.716;9.070;2022-10-16T00:50:37;4.63;;;2.70;;
6513;SDS011;3290;47.716;9.070;2022-10-16T00:53:04;2.40;;;2.20;;
6513;SDS011;3290;47.716;9.070;2022-10-16T00:55:30;4.53;;;2.40;;
6513;SDS011;3290;47.716;9.070;2022-10-16T00:57:55;7.30;;;2.40;;
6513;SDS011;3290;47.716;9.070;2022-10-16T01:00:24;7.53;;;2.83;;
6513;SDS011;3290;47.716;9.070;2022-10-16T01:02:54;3.27;;;2.80;;
6513;SDS011;3290;47.716;9.070;2022-10-16T01:05:22;2.83;;;2.53;;
6513;SDS011;3290;47.716;9.070;2022-10-16T01:10:54;4.27;;;2.67;;
6513;SDS011;3290;47.716;9.070;2022-10-16T01:13:25;4.97;;;2.60;;
6513;SDS011;3290;47.716;9.070;2022-10-16T01:18:39;7.37;;;2.97;;
6513;SDS011;3290;47.716;9.070;2022-10-16T01:26:35;2.80;;;1.93;;
6513;SDS011;3290;47.716;9.070;2022-10-16T01:31:58;3.33;;;2.53;;
6513;SDS011;3290;47.716;9.070;2022-10-16T01:34:49;6.53;;;2.57;;
6513;SDS011;3290;47.716;9.070;2022-10-16T01:37:17;6.10;;;2.50;;
6513;SDS011;3290;47.716;9.070;2022-10-16T01:39:47;6.00;;;2.90;;
6513;SDS011;3290;47.716;9.070;2022-10-16T01:42:20;6.60;;;2.73;;
6513;SDS011;3290;47.716;9.070;2022-10-16T01:44:49;3.70;;;2.40;;
6513;SDS011;3290;47.716;9.070;2022-10-16T01:47:16;4.90;;;3.47;;
6513;SDS011;3290;47.716;9.070;2022-10-16T01:49:44;10.63;;;2.63;;
6513;SDS011;3290;47.716;9.070;2022-10-16T01:52:12;6.50;;;3.50;;
6513;SDS011;3290;47.716;9.070;2022-10-16T01:54:43;5.53;;;3.00;;
6513;SDS011;3290;47.716;9.070;2022-10-16T01:57:12;9.23;;;4.40;;
6513;SDS011;3290;47.716;9.070;2022-10-16T01:59:44;9.50;;;3.50;;
6513;SDS011;3290;47.716;9.070;2022-10-16T02:02:15;7.40;;;3.47;;
6513;SDS011;3290;47.716;9.070;2022-10-16T02:04:44;13.70;;;3.50;;
6513;SDS011;3290;47.716;9.070;2022-10-16T02:07:12;21.13;;;4.53;;
6513;SDS011;3290;47.716;9.070;2022-10-16T02:09:38;29.20;;;5.73;;
6513;SDS011;3290;47.716;9.070;2022-10-16T02:12:13;23.40;;;4.63;;
6513;SDS011;3290;47.716;9.070;2022-10-16T02:14:42;17.17;;;4.73;;
6513;SDS011;3290;47.716;9.070;2022-10-16T02:17:12;16.20;;;5.30;;
6513;SDS011;3290;47.716;9.070;2022-10-16T02:19:39;14.77;;;7.27;;
6513;SDS011;3290;47.716;9.070;2022-10-16T02:22:05;20.70;;;11.10;;
6513;SDS011;3290;47.716;9.070;2022-10-16T02:24:33;16.73;;;6.43;;
6513;SDS011;3290;47.716;9.070;2022-10-16T02:29:42;13.13;;;6.40;;
6513;SDS011;3290;47.716;9.070;2022-10-16T02:32:12;10.60;;;5.90;;
6513;SDS011;3290;47.716;9.070;2022-10-16T02:34:41;7.77;;;4.87;;
6513;SDS011;3290;47.716;9.070;2022-10-16T02:37:08;20.73;;;6.10;;
6513;SDS011;3290;47.716;9.070;2022-10-16T02:39:35;14.60;;;4.97;;
6513;SDS011;3290;47.716;9.070;2022-10-16T02:42:02;17.20;;;5.60;;
6513;SDS011;3290;47.716;9.070;2022-10-16T02:44:27;7.77;;;4.97;;
6513;SDS011;3290;47.716;9.070;2022-10-16T02:46:52;17.77;;;4.60;;
6513;SDS011;3290;47.716;9.070;2022-10-16T02:49:18;14.17;;;5.07;;
6513;SDS011;3290;47.716;9.070;2022-10-16T02:51:43;8.13;;;5.03;;
6513;SDS011;3290;47.716;9.070;2022-10-16T02:54:09;11.33;;;5.90;;
6513;SDS011;3290;47.716;9.070;2022-10-16T02:56:34;14.40;;;5.83;;
6513;SDS011;3290;47.716;9.070;2022-10-16T02:58:59;9.77;;;5.73;;
6513;SDS011;3290;47.716;9.070;2022-10-16T03:01:25;11.10;;;5.50;;
6513;SDS011;3290;47.716;9.070;2022-10-16T03:03:50;11.40;;;5.37;;
6513;SDS011;3290;47.716;9.070;2022-10-16T03:06:15;6.00;;;4.70;;
6513;SDS011;3290;47.716;9.070;2022-10-16T03:08:41;16.03;;;4.60;;
6513;SDS011;3290;47.716;9.070;2022-10-16T03:11:06;10.97;;;5.07;;
6513;SDS011;3290;47.716;9.070;2022-10-16T03:13:32;13.40;;;4.03;;
6513;SDS011;3290;47.716;9.070;2022-10-16T03:15:57;14.20;;;4.30;;
6513;SDS011;3290;47.716;9.070;2022-10-16T03:18:23;7.30;;;5.10;;
6513;SDS011;3290;47.716;9.070;2022-10-16T03:20:48;6.60;;;5.50;;
6513;SDS011;3290;47.716;9.070;2022-10-16T03:23:13;7.00;;;4.90;;
6513;SDS011;3290;47.716;9.070;2022-10-16T03:25:39;7.80;;;4.80;;
6513;SDS011;3290;47.716;9.070;2022-10-16T03:28:04;9.47;;;4.60;;
6513;SDS011;3290;47.716;9.070;2022-10-16T03:30:30;13.00;;;4.50;;
6513;SDS011;3290;47.716;9.070;2022-10-16T03:32:55;8.53;;;4.20;;
6513;SDS011;3290;47.716;9.070;2022-10-16T03:35:21;5.87;;;4.17;;
6513;SDS011;3290;47.716;9.070;2022-10-16T03:37:47;5.77;;;4.57;;
6513;SDS011;3290;47.716;9.070;2022-10-16T03:40:12;7.00;;;4.43;;
6513;SDS011;3290;47.716;9.070;2022-10-16T03:42:37;14.13;;;5.10;;
6513;SDS011;3290;47.716;9.070;2022-10-16T03:45:03;6.70;;;4.80;;
6513;SDS011;3290;47.716;9.070;2022-10-16T03:47:29;9.23;;;4.40;;
6513;SDS011;3290;47.716;9.070;2022-10-16T03:49:54;5.33;;;4.80;;
6513;SDS011;3290;47.716;9.070;2022-10-16T03:52:20;13.07;;;5.30;;
6513;SDS011;3290;47.716;9.070;2022-10-16T03:54:45;8.30;;;4.73;;
6513;SDS011;3290;47.716;9.070;2022-10-16T03:57:10;8.13;;;4.83;;
6513;SDS011;3290;47.716;9.070;2022-10-16T03:59:36;12.67;;;4.67;;
6513;SDS011;3290;47.716;9.070;2022-10-16T04:02:01;6.30;;;4.50;;
6513;SDS011;3290;47.716;9.070;2022-10-16T04:04:26;15.57;;;4.93;;
6513;SDS011;3290;47.716;9.070;2022-10-16T04:06:52;10.80;;;4.70;;
6513;SDS011;3290;47.716;9.070;2022-10-16T04:09:17;9.80;;;5.30;;
6513;SDS011;3290;47.716;9.070;2022-10-16T04:11:42;9.53;;;4.50;;
6513;SDS011;3290;47.716;9.070;2022-10-16T04:14:08;11.30;;;3.87;;
6513;SDS011;3290;47.716;9.070;2022-10-16T04:16:33;8.50;;;5.07;;
6513;SDS011;3290;47.716;9.070;2022-10-16T04:18:59;14.97;;;5.63;;
6513;SDS011;3290;47.716;9.070;2022-10-16T04:21:24;19.60;;;5.67;;
6513;SDS011;3290;47.716;9.070;2022-10-16T04:23:49;8.83;;;4.50;;
6513;SDS011;3290;47.716;9.070;2022-10-16T04:26:15;10.20;;;4.77;;
6513;SDS011;3290;47.716;9.070;2022-10-16T04:28:40;10.23;;;4.93;;
6513;SDS011;3290;47.716;9.070;2022-10-16T04:31:06;8.57;;;5.27;;
6513;SDS011;3290;47.716;9.070;2022-10-16T04:33:32;11.93;;;5.60;;
6513;SDS011;3290;47.716;9.070;2022-10-16T04:36:01;13.13;;;5.30;;
6513;SDS011;3290;47.716;9.070;2022-10-16T04:38:27;9.83;;;5.43;;
6513;SDS011;3290;47.716;9.070;2022-10-16T04:40:53;12.03;;;5.73;;
6513;SDS011;3290;47.716;9.070;2022-10-16T04:43:18;8.10;;;5.87;;
6513;SDS011;3290;47.716;9.070;2022-10-16T04:45:44;12.93;;;5.23;;
6513;SDS011;3290;47.716;9.070;2022-10-16T04:48:09;10.53;;;5.90;;
6513;SDS011;3290;47.716;9.070;2022-10-16T04:50:35;14.43;;;5.90;;
6513;SDS011;3290;47.716;9.070;2022-10-16T04:53:00;13.73;;;6.13;;
6513;SDS011;3290;47.716;9.070;2022-10-16T04:55:25;8.50;;;5.50;;
6513;SDS011;3290;47.716;9.070;2022-10-16T04:57:51;17.33;;;5.93;;
6513;SDS011;3290;47.716;9.070;2022-10-16T05:00:16;17.83;;;6.00;;
6513;SDS011;3290;47.716;9.070;2022-10-16T05:02:42;9.40;;;5.90;;
6513;SDS011;3290;47.716;9.070;2022-10-16T05:05:07;10.40;;;5.90;;
6513;SDS011;3290;47.716;9.070;2022-10-16T05:07:33;11.40;;;5.33;;
6513;SDS011;3290;47.716;9.070;2022-10-16T05:09:58;10.67;;;6.00;;
6513;SDS011;3290;47.716;9.070;2022-10-16T05:12:23;21.83;;;7.93;;
6513;SDS011;3290;47.716;9.070;2022-10-16T05:14:49;12.60;;;6.13;;
6513;SDS011;3290;47.716;9.070;2022-10-16T05:17:14;12.23;;;5.87;;
6513;SDS011;3290;47.716;9.070;2022-10-16T05:19:39;14.33;;;5.70;;
6513;SDS011;3290;47.716;9.070;2022-10-16T05:22:05;15.77;;;5.70;;
6513;SDS011;3290;47.716;9.070;2022-10-16T05:24:30;14.17;;;6.97;;
6513;SDS011;3290;47.716;9.070;2022-10-16T05:26:55;31.70;;;6.33;;
6513;SDS011;3290;47.716;9.070;2022-10-16T05:29:21;11.60;;;5.70;;
6513;SDS011;3290;47.716;9.070;2022-10-16T05:31:49;8.63;;;5.60;;
6513;SDS011;3290;47.716;9.070;2022-10-16T05:34:15;22.77;;;7.00;;
6513;SDS011;3290;47.716;9.070;2022-10-16T05:36:41;8.60;;;5.80;;
6513;SDS011;3290;47.716;9.070;2022-10-16T05:39:06;12.50;;;5.73;;
6513;SDS011;3290;47.716;9.070;2022-10-16T05:41:31;11.60;;;6.40;;
6513;SDS011;3290;47.716;9.070;2022-10-16T05:43:57;15.57;;;7.10;;
6513;SDS011;3290;47.716;9.070;2022-10-16T05:46:22;27.00;;;7.20;;
6513;SDS011;3290;47.716;9.070;2022-10-16T05:48:48;9.40;;;6.00;;
6513;SDS011;3290;47.716;9.070;2022-10-16T05:51:14;16.30;;;6.50;;
6513;SDS011;3290;47.716;9.070;2022-10-16T05:53:40;15.80;;;7.43;;
6513;SDS011;3290;47.716;9.070;2022-10-16T05:56:06;20.43;;;6.70;;
6513;SDS011;3290;47.716;9.070;2022-10-16T05:58:34;19.53;;;9.53;;
6513;SDS011;3290;47.716;9.070;2022-10-16T06:01:03;23.33;;;9.27;;
6513;SDS011;3290;47.716;9.070;2022-10-16T06:03:39;17.30;;;8.90;;
6513;SDS011;3290;47.716;9.070;2022-10-16T06:06:36;21.20;;;6.60;;
6513;SDS011;3290;47.716;9.070;2022-10-16T06:09:02;19.07;;;9.50;;
6513;SDS011;3290;47.716;9.070;2022-10-16T06:11:30;34.33;;;9.53;;
6513;SDS011;3290;47.716;9.070;2022-10-16T06:13:58;23.80;;;7.57;;
6513;SDS011;3290;47.716;9.070;2022-10-16T06:16:28;14.27;;;6.50;;
6513;SDS011;3290;47.716;9.070;2022-10-16T06:18:54;16.13;;;6.77;;
6513;SDS011;3290;47.716;9.070;2022-10-16T06:21:21;12.77;;;7.20;;
6513;SDS011;3290;47.716;9.070;2022-10-16T06:23:50;18.63;;;7.07;;
6513;SDS011;3290;47.716;9.070;2022-10-16T06:26:17;18.83;;;9.00;;
6513;SDS011;3290;47.716;9.070;2022-10-16T06:28:44;23.43;;;7.20;;
6513;SDS011;3290;47.716;9.070;2022-10-16T06:31:10;19.50;;;7.80;;
6513;SDS011;3290;47.716;9.070;2022-10-16T06:33:37;12.50;;;6.97;;
6513;SDS011;3290;47.716;9.070;2022-10-16T06:36:07;19.20;;;8.60;;
6513;SDS011;3290;47.716;9.070;2022-10-16T06:38:34;13.80;;;9.00;;
6513;SDS011;3290;47.716;9.070;2022-10-16T06:41:00;19.10;;;7.53;;
6513;SDS011;3290;47.716;9.070;2022-10-16T06:43:25;17.60;;;9.37;;
6513;SDS011;3290;47.716;9.070;2022-10-16T06:45:54;23.27;;;7.80;;
6513;SDS011;3290;47.716;9.070;2022-10-16T06:48:22;37.70;;;10.97;;
6513;SDS011;3290;47.716;9.070;2022-10-16T06:53:34;35.83;;;7.97;;
6513;SDS011;3290;47.716;9.070;2022-10-16T06:56:10;24.77;;;13.77;;
6513;SDS011;3290;47.716;9.070;2022-10-16T06:58:37;20.63;;;13.60;;
6513;SDS011;3290;47.716;9.070;2022-10-16T07:01:03;15.20;;;9.03;;
6513;SDS011;3290;47.716;9.070;2022-10-16T07:03:29;18.93;;;7.63;;
6513;SDS011;3290;47.716;9.070;2022-10-16T07:05:55;8.50;;;6.77;;
6513;SDS011;3290;47.716;9.070;2022-10-16T07:08:21;10.27;;;6.90;;
6513;SDS011;3290;47.716;9.070;2022-10-16T07:10:46;15.50;;;8.40;;
6513;SDS011;3290;47.716;9.070;2022-10-16T07:13:12;19.60;;;8.50;;
6513;SDS011;3290;47.716;9.070;2022-10-16T07:15:40;10.27;;;7.57;;
6513;SDS011;3290;47.716;9.070;2022-10-16T07:18:06;15.93;;;7.53;;
6513;SDS011;3290;47.716;9.070;2022-10-16T07:20:32;21.90;;;8.00;;
6513;SDS011;3290;47.716;9.070;2022-10-16T07:22:57;26.07;;;6.70;;
6513;SDS011;3290;47.716;9.070;2022-10-16T07:25:23;21.63;;;7.33;;
6513;SDS011;3290;47.716;9.070;2022-10-16T07:27:48;47.13;;;7.63;;
6513;SDS011;3290;47.716;9.070;2022-10-16T07:30:14;31.27;;;7.80;;
6513;SDS011;3290;47.716;9.070;2022-10-16T07:32:39;13.30;;;8.60;;
6513;SDS011;3290;47.716;9.070;2022-10-16T07:35:05;22.73;;;8.20;;
6513;SDS011;3290;47.716;9.070;2022-10-16T07:37:30;53.63;;;9.17;;
6513;SDS011;3290;47.716;9.070;2022-10-16T07:39:56;25.87;;;7.37;;
6513;SDS011;3290;47.716;9.070;2022-10-16T07:42:21;21.57;;;8.23;;
6513;SDS011;3290;47.716;9.070;2022-10-16T07:44:46;8.67;;;6.73;;
6513;SDS011;3290;47.716;9.070;2022-10-16T07:47:12;18.80;;;7.67;;
6513;SDS011;3290;47.716;9.070;2022-10-16T07:49:37;9.33;;;6.60;;
6513;SDS011;3290;47.716;9.070;2022-10-16T07:52:03;8.27;;;5.07;;
6513;SDS011;3290;47.716;9.070;2022-10-16T07:54:28;6.50;;;5.67;;
6513;SDS011;3290;47.716;9.070;2022-10-16T07:56:53;14.57;;;5.53;;
6513;SDS011;3290;47.716;9.070;2022-10-16T07:59:19;10.50;;;5.27;;
6513;SDS011;3290;47.716;9.070;2022-10-16T08:01:44;10.80;;;5.63;;
6513;SDS011;3290;47.716;9.070;2022-10-16T08:04:10;11.30;;;5.60;;
6513;SDS011;3290;47.716;9.070;2022-10-16T08:06:36;10.93;;;6.13;;
6513;SDS011;3290;47.716;9.070;2022-10-16T08:09:02;32.27;;;7.93;;
6513;SDS011;3290;47.716;9.070;2022-10-16T08:11:28;9.20;;;6.33;;
6513;SDS011;3290;47.716;9.070;2022-10-16T08:13:54;7.37;;;5.60;;
6513;SDS011;3290;47.716;9.070;2022-10-16T08:16:19;21.53;;;6.00;;
6513;SDS011;3290;47.716;9.070;2022-10-16T08:18:45;9.50;;;6.63;;
6513;SDS011;3290;47.716;9.070;2022-10-16T08:21:15;9.30;;;5.43;;
6513;SDS011;3290;47.716;9.070;2022-10-16T08:23:42;8.63;;;6.40;;
6513;SDS011;3290;47.716;9.070;2022-10-16T08:26:09;7.67;;;5.40;;
6513;SDS011;3290;47.716;9.070;2022-10-16T08:28:35;8.47;;;6.20;;
6513;SDS011;3290;47.716;9.070;2022-10-16T08:33:37;10.90;;;6.23;;
6513;SDS011;3290;47.716;9.070;2022-10-16T08:36:04;7.40;;;5.00;;
6513;SDS011;3290;47.716;9.070;2022-10-16T08:38:30;7.07;;;5.47;;
6513;SDS011;3290;47.716;9.070;2022-10-16T08:40:57;6.07;;;5.00;;
6513;SDS011;3290;47.716;9.070;2022-10-16T08:49:27;11.23;;;6.23;;
6513;SDS011;3290;47.716;9.070;2022-10-16T08:51:54;17.10;;;7.47;;
6513;SDS011;3290;47.716;9.070;2022-10-16T08:56:56;10.70;;;5.43;;
6513;SDS011;3290;47.716;9.070;2022-10-16T08:59:26;9.20;;;5.70;;
6513;SDS011;3290;47.716;9.070;2022-10-16T09:01:52;8.57;;;6.03;;
6513;SDS011;3290;47.716;9.070;2022-10-16T09:04:29;8.03;;;5.90;;
6513;SDS011;3290;47.716;9.070;2022-10-16T09:07:27;11.40;;;6.07;;
6513;SDS011;3290;47.716;9.070;2022-10-16T09:15:46;13.63;;;6.90;;
6513;SDS011;3290;47.716;9.070;2022-10-16T09:18:30;18.23;;;6.53;;
6513;SDS011;3290;47.716;9.070;2022-10-16T09:21:01;10.13;;;6.50;;
6513;SDS011;3290;47.716;9.070;2022-10-16T09:23:30;9.23;;;6.63;;
6513;SDS011;3290;47.716;9.070;2022-10-16T09:25:59;14.53;;;6.70;;
6513;SDS011;3290;47.716;9.070;2022-10-16T09:28:25;8.33;;;6.23;;
6513;SDS011;3290;47.716;9.070;2022-10-16T09:30:51;8.53;;;6.40;;
6513;SDS011;3290;47.716;9.070;2022-10-16T09:33:17;10.10;;;6.47;;
6513;SDS011;3290;47.716;9.070;2022-10-16T09:35:49;9.90;;;7.10;;
6513;SDS011;3290;47.716;9.070;2022-10-16T09:40:53;10.27;;;7.50;;
6513;SDS011;3290;47.716;9.070;2022-10-16T09:45:57;11.83;;;7.10;;
6513;SDS011;3290;47.716;9.070;2022-10-16T09:48:31;10.67;;;6.90;;
6513;SDS011;3290;47.716;9.070;2022-10-16T09:51:03;10.30;;;6.40;;
6513;SDS011;3290;47.716;9.070;2022-10-16T09:53:43;12.70;;;8.17;;
6513;SDS011;3290;47.716;9.070;2022-10-16T09:56:21;14.63;;;8.00;;
6513;SDS011;3290;47.716;9.070;2022-10-16T09:58:52;12.13;;;9.00;;
6513;SDS011;3290;47.716;9.070;2022-10-16T10:01:20;9.53;;;6.50;;
6513;SDS011;3290;47.716;9.070;2022-10-16T10:03:47;14.53;;;7.77;;
6513;SDS011;3290;47.716;9.070;2022-10-16T10:06:26;12.10;;;7.00;;
6513;SDS011;3290;47.716;9.070;2022-10-16T10:09:00;9.90;;;6.00;;
6513;SDS011;3290;47.716;9.070;2022-10-16T10:11:49;10.03;;;7.20;;
6513;SDS011;3290;47.716;9.070;2022-10-16T10:19:29;10.47;;;6.50;;
6513;SDS011;3290;47.716;9.070;2022-10-16T10:21:55;7.00;;;5.63;;
6513;SDS011;3290;47.716;9.070;2022-10-16T10:24:20;5.73;;;4.77;;
6513;SDS011;3290;47.716;9.070;2022-10-16T10:30:01;12.03;;;5.47;;
6513;SDS011;3290;47.716;9.070;2022-10-16T10:32:48;4.20;;;3.80;;
6513;SDS011;3290;47.716;9.070;2022-10-16T10:35:24;4.33;;;3.63;;
6513;SDS011;3290;47.716;9.070;2022-10-16T10:46:00;11.13;;;2.93;;
6513;SDS011;3290;47.716;9.070;2022-10-16T10:48:42;6.43;;;3.33;;
6513;SDS011;3290;47.716;9.070;2022-10-16T10:51:39;5.83;;;4.10;;
6513;SDS011;3290;47.716;9.070;2022-10-16T10:54:47;8.20;;;5.43;;
6513;SDS011;3290;47.716;9.070;2022-10-16T10:57:30;7.10;;;4.40;;
6513;SDS011;3290;47.716;9.070;2022-10-16T11:02:52;6.53;;;5.60;;
6513;SDS011;3290;47.716;9.070;2022-10-16T11:10:58;5.93;;;4.10;;
6513;SDS011;3290;47.716;9.070;2022-10-16T11:13:35;6.07;;;3.43;;
6513;SDS011;3290;47.716;9.070;2022-10-16T11:16:11;6.50;;;3.40;;
6513;SDS011;3290;47.716;9.070;2022-10-16T11:18:54;2.60;;;2.40;;
6513;SDS011;3290;47.716;9.070;2022-10-16T11:21:24;4.80;;;3.50;;
6513;SDS011;3290;47.716;9.070;2022-10-16T11:23:59;8.33;;;4.07;;
6513;SDS011;3290;47.716;9.070;2022-10-16T11:26:32;6.80;;;3.20;;
6513;SDS011;3290;47.716;9.070;2022-10-16T11:29:01;4.07;;;2.90;;
6513;SDS011;3290;47.716;9.070;2022-10-16T11:31:32;4.47;;;3.03;;
6513;SDS011;3290;47.716;9.070;2022-10-16T11:34:07;7.20;;;3.00;;
6513;SDS011;3290;47.716;9.070;2022-10-16T11:36:51;3.97;;;2.73;;
6513;SDS011;3290;47.716;9.070;2022-10-16T11:39:31;5.53;;;2.50;;
6513;SDS011;3290;47.716;9.070;2022-10-16T11:44:55;7.40;;;2.70;;
6513;SDS011;3290;47.716;9.070;2022-10-16T11:47:27;3.67;;;3.00;;
6513;SDS011;3290;47.716;9.070;2022-10-16T11:50:02;6.43;;;3.33;;
6513;SDS011;3290;47.716;9.070;2022-10-16T11:52:46;4.37;;;2.80;;
6513;SDS011;3290;47.716;9.070;2022-10-16T11:55:36;2.50;;;2.30;;
6513;SDS011;3290;47.716;9.070;2022-10-16T11:58:05;7.50;;;3.10;;
6513;SDS011;3290;47.716;9.070;2022-10-16T12:00:40;3.80;;;2.40;;
6513;SDS011;3290;47.716;9.070;2022-10-16T12:08:44;4.60;;;2.00;;
6513;SDS011;3290;47.716;9.070;2022-10-16T12:19:20;4.80;;;2.43;;
6513;SDS011;3290;47.716;9.070;2022-10-16T12:21:46;4.40;;;2.53;;
6513;SDS011;3290;47.716;9.070;2022-10-16T12:29:37;2.93;;;2.40;;
6513;SDS011;3290;47.716;9.070;2022-10-16T12:32:06;2.00;;;;;
6513;SDS011;3290;47.716;9.070;2022-10-16T12:34:46;3.40;;;2.57;;
6513;SDS011;3290;47.716;9.070;2022-10-16T12:37:26;2.67;;;1.53;;
6513;SDS011;3290;47.716;9.070;2022-10-16T12:39:56;2.37;;;1.40;;
6513;SDS011;3290;47.716;9.070;2022-10-16T12:44:51;2.17;;;1.57;;
6513;SDS011;3290;47.716;9.070;2022-10-16T12:47:47;2.17;;;1.80;;
6513;SDS011;3290;47.716;9.070;2022-10-16T12:50:26;3.40;;;1.93;;
6513;SDS011;3290;47.716;9.070;2022-10-16T12:52:51;1.43;;;1.33;;
6513;SDS011;3290;47.716;9.070;2022-10-16T12:55:17;2.53;;;1.50;;
6513;SDS011;3290;47.716;9.070;2022-10-16T13:06:04;1.97;;;1.37;;
6513;SDS011;3290;47.716;9.070;2022-10-16T13:17:27;2.57;;;1.47;;
6513;SDS011;3290;47.716;9.070;2022-10-16T13:20:16;1.47;;;1.23;;
6513;SDS011;3290;47.716;9.070;2022-10-16T13:22:50;2.20;;;1.50;;
6513;SDS011;3290;47.716;9.070;2022-10-16T13:25:39;2.77;;;2.20;;
6513;SDS011;3290;47.716;9.070;2022-10-16T13:28:08;2.40;;;1.93;;
6513;SDS011;3290;47.716;9.070;2022-10-16T13:30:43;3.27;;;1.60;;
6513;SDS011;3290;47.716;9.070;2022-10-16T13:33:16;1.50;;;1.40;;
6513;SDS011;3290;47.716;9.070;2022-10-16T13:35:47;9.30;;;2.30;;
6513;SDS011;3290;47.716;9.070;2022-10-16T13:38:18;8.97;;;3.70;;
6513;SDS011;3290;47.716;9.070;2022-10-16T13:40:51;2.70;;;2.23;;
6513;SDS011;3290;47.716;9.070;2022-10-16T13:43:26;3.53;;;1.90;;
6513;SDS011;3290;47.716;9.070;2022-10-16T13:46:12;1.80;;;1.40;;
6513;SDS011;3290;47.716;9.070;2022-10-16T13:48:39;2.00;;;1.80;;
6513;SDS011;3290;47.716;9.070;2022-10-16T13:51:06;3.20;;;1.80;;
6513;SDS011;3290;47.716;9.070;2022-10-16T13:53:33;2.10;;;1.83;;
6513;SDS011;3290;47.716;9.070;2022-10-16T13:56:01;2.10;;;1.80;;
6513;SDS011;3290;47.716;9.070;2022-10-16T13:58:32;2.20;;;1.63;;
6513;SDS011;3290;47.716;9.070;2022-10-16T14:01:02;1.70;;;1.60;;
6513;SDS011;3290;47.716;9.070;2022-10-16T14:03:30;2.60;;;2.40;;
6513;SDS011;3290;47.716;9.070;2022-10-16T14:05:58;1.77;;;1.50;;
6513;SDS011;3290;47.716;9.070;2022-10-16T14:08:25;3.93;;;1.80;;
6513;SDS011;3290;47.716;9.070;2022-10-16T14:10:54;3.70;;;2.03;;
6513;SDS011;3290;47.716;9.070;2022-10-16T14:13:30;3.30;;;2.07;;
6513;SDS011;3290;47.716;9.070;2022-10-16T14:16:00;6.70;;;2.00;;
6513;SDS011;3290;47.716;9.070;2022-10-16T14:18:30;2.50;;;1.87;;
6513;SDS011;3290;47.716;9.070;2022-10-16T14:21:02;5.07;;;1.40;;
6513;SDS011;3290;47.716;9.070;2022-10-16T14:23:29;2.90;;;1.77;;
6513;SDS011;3290;47.716;9.070;2022-10-16T14:28:34;5.10;;;1.90;;
6513;SDS011;3290;47.716;9.070;2022-10-16T14:31:00;5.90;;;2.33;;
6513;SDS011;3290;47.716;9.070;2022-10-16T14:38:39;3.37;;;1.50;;
6513;SDS011;3290;47.716;9.070;2022-10-16T14:41:07;5.97;;;1.80;;
6513;SDS011;3290;47.716;9.070;2022-10-16T14:43:37;2.90;;;1.80;;
6513;SDS011;3290;47.716;9.070;2022-10-16T14:46:15;3.10;;;1.73;;
6513;SDS011;3290;47.716;9.070;2022-10-16T14:48:45;3.87;;;1.50;;
6513;SDS011;3290;47.716;9.070;2022-10-16T14:51:15;4.10;;;1.40;;
6513;SDS011;3290;47.716;9.070;2022-10-16T14:53:41;2.83;;;1.57;;
6513;SDS011;3290;47.716;9.070;2022-10-16T14:56:07;1.77;;;1.63;;
6513;SDS011;3290;47.716;9.070;2022-10-16T14:58:39;3.23;;;1.77;;
6513;SDS011;3290;47.716;9.070;2022-10-16T15:01:04;2.27;;;1.80;;
6513;SDS011;3290;47.716;9.070;2022-10-16T15:03:31;1.77;;;1.40;;
6513;SDS011;3290;47.716;9.070;2022-10-16T15:05:57;5.00;;;1.60;;
6513;SDS011;3290;47.716;9.070;2022-10-16T15:08:22;1.70;;;1.60;;
6513;SDS011;3290;47.716;9.070;2022-10-16T15:10:47;1.50;;;1.30;;
6513;SDS011;3290;47.716;9.070;2022-10-16T15:13:13;4.37;;;1.60;;
6513;SDS011;3290;47.716;9.070;2022-10-16T15:15:47;3.17;;;1.50;;
6513;SDS011;3290;47.716;9.070;2022-10-16T15:18:14;2.80;;;1.60;;
6513;SDS011;3290;47.716;9.070;2022-10-16T15:20:45;3.73;;;1.73;;
6513;SDS011;3290;47.716;9.070;2022-10-16T15:23:16;2.90;;;1.67;;
6513;SDS011;3290;47.716;9.070;2022-10-16T15:25:45;3.37;;;2.10;;
6513;SDS011;3290;47.716;9.070;2022-10-16T15:28:10;8.63;;;1.90;;
6513;SDS011;3290;47.716;9.070;2022-10-16T15:30:37;2.53;;;1.87;;
6513;SDS011;3290;47.716;9.070;2022-10-16T15:33:03;1.50;;;1.40;;
6513;SDS011;3290;47.716;9.070;2022-10-16T15:35:30;2.33;;;1.90;;
6513;SDS011;3290;47.716;9.070;2022-10-16T15:37:55;2.47;;;1.70;;
6513;SDS011;3290;47.716;9.070;2022-10-16T15:40:22;4.23;;;1.90;;
6513;SDS011;3290;47.716;9.070;2022-10-16T15:42:48;4.53;;;2.07;;
6513;SDS011;3290;47.716;9.070;2022-10-16T15:45:13;3.30;;;1.70;;
6513;SDS011;3290;47.716;9.070;2022-10-16T15:47:40;1.93;;;1.60;;
6513;SDS011;3290;47.716;9.070;2022-10-16T15:50:07;1.97;;;1.77;;
6513;SDS011;3290;47.716;9.070;2022-10-16T15:52:35;7.37;;;2.20;;
6513;SDS011;3290;47.716;9.070;2022-10-16T15:55:01;5.10;;;2.37;;
6513;SDS011;3290;47.716;9.070;2022-10-16T15:57:29;2.47;;;2.07;;
6513;SDS011;3290;47.716;9.070;2022-10-16T15:59:55;4.53;;;2.13;;
6513;SDS011;3290;47.716;9.070;2022-10-16T16:02:20;2.77;;;2.10;;
6513;SDS011;3290;47.716;9.070;2022-10-16T16:04:45;3.97;;;2.10;;
6513;SDS011;3290;47.716;9.070;2022-10-16T16:07:11;3.10;;;1.83;;
6513;SDS011;3290;47.716;9.070;2022-10-16T16:09:36;14.33;;;2.30;;
6513;SDS011;3290;47.716;9.070;2022-10-16T16:12:02;2.20;;;1.93;;
6513;SDS011;3290;47.716;9.070;2022-10-16T16:14:27;3.63;;;1.97;;
6513;SDS011;3290;47.716;9.070;2022-10-16T16:16:54;10.10;;;7.90;;
6513;SDS011;3290;47.716;9.070;2022-10-16T16:19:20;4.20;;;3.10;;
6513;SDS011;3290;47.716;9.070;2022-10-16T16:21:46;3.20;;;2.90;;
6513;SDS011;3290;47.716;9.070;2022-10-16T16:24:12;13.23;;;3.17;;
6513;SDS011;3290;47.716;9.070;2022-10-16T16:26:38;8.30;;;2.57;;
6513;SDS011;3290;47.716;9.070;2022-10-16T16:29:04;5.40;;;2.90;;
6513;SDS011;3290;47.716;9.070;2022-10-16T16:31:31;8.90;;;3.10;;
6513;SDS011;3290;47.716;9.070;2022-10-16T16:33:58;5.33;;;3.20;;
6513;SDS011;3290;47.716;9.070;2022-10-16T16:36:24;6.80;;;3.47;;
6513;SDS011;3290;47.716;9.070;2022-10-16T16:38:50;5.10;;;2.87;;
6513;SDS011;3290;47.716;9.070;2022-10-16T16:41:22;9.03;;;3.10;;
6513;SDS011;3290;47.716;9.070;2022-10-16T16:43:50;6.40;;;3.80;;
6513;SDS011;3290;47.716;9.070;2022-10-16T16:46:16;4.83;;;2.90;;
6513;SDS011;3290;47.716;9.070;2022-10-16T16:48:42;3.83;;;2.50;;
6513;SDS011;3290;47.716;9.070;2022-10-16T16:51:09;3.40;;;2.30;;
6513;SDS011;3290;47.716;9.070;2022-10-16T16:53:40;6.70;;;2.37;;
6513;SDS011;3290;47.716;9.070;2022-10-16T16:56:06;6.73;;;2.63;;
6513;SDS011;3290;47.716;9.070;2022-10-16T16:58:31;6.50;;;2.30;;
6513;SDS011;3290;47.716;9.070;2022-10-16T17:00:58;6.00;;;2.10;;
6513;SDS011;3290;47.716;9.070;2022-10-16T17:03:27;12.03;;;2.90;;
6513;SDS011;3290;47.716;9.070;2022-10-16T17:06:00;7.20;;;2.83;;
6513;SDS011;3290;47.716;9.070;2022-10-16T17:08:27;7.40;;;3.30;;
6513;SDS011;3290;47.716;9.070;2022-10-16T17:10:54;4.20;;;2.63;;
6513;SDS011;3290;47.716;9.070;2022-10-16T17:13:23;8.37;;;2.70;;
6513;SDS011;3290;47.716;9.070;2022-10-16T17:15:50;13.83;;;2.30;;